Denver International, CO

9:05 AM MDT on September 30, 2014 (GMT -0600)
Buckley Air Force Base | Change Station
CLOSE
Current Station
Airport
Location: Aurora,
Elevation: 5663 ft
Nearby Weather Stations

Elev 5663 ft 39.71 °N, 104.76 °W | Updated 7 minutes ago

Partly Cloudy
Partly Cloudy
55 °F
Feels Like 55 °F
N
7
Wind Variable Wind from SW

Today
High -- | Low -- °F
--% Chance of Precip.
Yesterday
High -- | Low -- °F
Precip. -- in
6:54 AM 6:42 PM
Waxing Crescent, 37% visible
Pressure 29.76 in
Visibility 10.0 miles
Clouds Few 11000 ft
Few 22000 ft
Dew Point 36 °F
Humidity 48%
Rainfall 0.00 in
Snow Depth 0 in , 1 in , 0 in
UV 2 out of 12
Pollen 3.50 out of 12
Ozone Good
PM2.5 Good
Flu Activity Not available.
METAR KBKF 301458Z 22006KT 10SM FEW110 FEW220 13/02 A2988 RMK AO2A SLP077 T01300021 53006

More Conditions Fewer Conditions

Pressure 29.76 in
Visibility 10.0 miles
Clouds Few 11000 ft
Few 22000 ft
Dew Point 36 °F
Humidity 48%
Rainfall 0.00 in
Snow Depth 0 in , 1 in , 0 in
UV 2 out of 12
Pollen 3.50 out of 12
Ozone Good
PM2.5 Good
Flu Activity Not available.
METAR KBKF 301458Z 22006KT 10SM FEW110 FEW220 13/02 A2988 RMK AO2A SLP077 T01300021 53006

More Conditions Fewer Conditions

10-Day Weather Forecast

Almanac

Astronomy

Sep. 30, 2014 Rise Set
Actual Time 6:54 AM MDT 6:42 PM MDT
Civil Twilight 6:27 AM MDT 7:09 PM MDT
Nautical Twilight 5:55 AM MDT 7:40 PM MDT
Astronomical Twilight 5:23 AM MDT 8:12 PM MDT
Moon 1:03 PM MDT 11:15 PM MDT
Length of Visible Light 12h 42m
Length of Day
11h 48m
Tomorrow will be 2m 35s shorter.
Waxing Crescent, 37% of the Moon is Illuminated
Today
Waxing Crescent
Oct 1
First Quarter
Oct 8
Full
Oct 15
Last Quarter
Oct 23
New

Today's Extremes

State Highs State Lows

Community

WunderPhotos

Upload Photos

1,757,641 photos uploaded!

WunderBlogs® & News

By Dr. Jeff Masters
Director of Meteorology, Weather Underground
By Kari Strenfel
Meteorologist, Weather Underground
By Christopher C. Burt
Weather Historian, Weather Underground
September 30, 2014
September 30, 2014
September 30, 2014

Nearby

Air Quality

  Air Quality AQ Index Pollutant
Yesterday Good
OZONE
Yesterday Good
PM10
Current Good
OZONE
Current Good
PM2.5
Tuesday Good
OZONE
Tuesday Good
PM2.5

Snow Depth

Station Depth Elevation
Bear Lake 0 in 9500 ft
Lizard Head Pass 1 in 10200 ft
Bear RIver 0 in 9080 ft
Mineral Creek 0 in 10040 ft
Brumley 0 in 10600 ft

Earthquake Activity

City Distance Mag. Time & Date
No recent earthquake activity has been reported nearby.
Minimum magnitude displayed is 2.5.

Coastal Water Temperatures

Place Temperature
No Stations Reporting

Nearby Weather Stations